WEATHER DATA

YESTERDAY
Time Temp. Dewp. Hum. Wind dir Wind speed Wind gust Bar. 1h Prec. 24h Prec.
00:03 10.7 6.8 77 156 0.8 1.4 1019.9 0.0000 0.0000
00:12 10.5 6.6 77 156 0.8 1.4 1019.9 0.0000 0.0000
00:22 10.1 6.4 78 156 0.8 1.4 1019.9 0.0000 0.0000
00:38 9.5 6.2 80 156 0.8 1.4 1019.9 0.0000 0.0000
00:58 9.1 6 81 156 0.8 1.4 1019.9 0.0000 0.0000
01:08 8.9 5.8 81 156 0.8 1.4 1019.9 0.0000 0.0000
01:18 8.8 5.9 82 156 0.8 1.4 1019.8 0.0000 0.0000
01:28 8.6 5.7 82 156 0.8 1.4 1019.8 0.0000 0.0000
01:38 8.4 5.5 82 156 0.8 1.4 1019.7 0.0000 0.0000
01:58 8.1 5.4 83 156 0.8 1.4 1019.7 0.0000 0.0000
02:18 8 5.3 83 156 0.8 1.4 1019.8 0.0000 0.0000
02:29 8.1 5.4 83 156 0.8 1.4 1019.8 0.0000 0.0000
02:39 8.2 5.5 83 156 0.8 1.4 1019.8 0.0000 0.0000
02:48 8.2 5.3 82 156 0.8 1.4 1019.7 0.0000 0.0000
02:59 8 5.1 82 156 0.8 1.4 1019.7 0.0000 0.0000
03:09 7.7 4.8 82 156 0.8 1.4 1019.8 0.0000 0.0000
03:24 7.5 4.8 83 156 0.8 1.4 1019.7 0.0000 0.0000
03:44 7.7 5 83 156 0.8 1.4 1019.4 0.0000 0.0000
03:54 7.4 4.7 83 156 0.8 1.4 1019.3 0.0000 0.0000
04:04 7.2 4.5 83 156 0.8 1.4 1019.2 0.0000 0.0000
04:20 7.2 4.7 84 156 0.8 1.4 1019.1 0.0000 0.0000
04:30 7 4.5 84 156 0.8 1.4 1019 0.0000 0.0000
04:39 6.8 4.3 84 156 0.8 1.4 1018.8 0.0000 0.0000
04:50 6.8 4.3 84 156 0.8 1.4 1018.8 0.0000 0.0000
05:00 6.9 4.6 85 156 0.8 1.4 1018.7 0.0000 0.0000
05:10 7 4.7 85 156 0.8 1.4 1018.6 0.0000 0.0000
05:25 6.9 4.4 84 156 0.8 1.4 1018.7 0.0000 0.0000
05:35 6.7 4.2 84 156 0.8 1.4 1018.7 0.0000 0.0000
05:45 6.7 4.2 84 156 0.8 1.4 1018.7 0.0000 0.0000
06:06 7.1 4.8 85 156 0.8 1.4 1018.6 0.0000 0.0000
06:16 7.1 4.6 84 156 0.8 1.4 1018.6 0.0000 0.0000
06:25 6.9 4.4 84 156 0.8 1.4 1018.6 0.0000 0.0000
06:36 6.7 4.2 84 156 0.8 1.4 1018.7 0.0000 0.0000
06:46 6.8 4.5 85 156 0.8 1.4 1018.6 0.0000 0.0000
07:06 7 4.7 85 156 0.8 1.4 1018.5 0.0000 0.0000
07:26 6.9 4.4 84 156 0.8 1.4 1018.6 0.0000 0.0000
07:36 6.6 4.1 84 156 0.8 1.4 1018.6 0.0000 0.0000
07:47 6.6 4.3 85 156 0.8 1.4 1018.6 0.0000 0.0000
07:57 6.4 4.1 85 156 0.8 1.4 1018.7 0.0000 0.0000
08:07 6.4 4.1 85 156 0.8 1.4 1018.7 0.0000 0.0000
08:17 6.8 4.6 86 156 0.8 1.4 1018.7 0.0000 0.0000
08:27 7.2 4.9 85 156 0.8 1.4 1018.7 0.0000 0.0000
08:42 7.7 5.3 85 156 0.8 1.4 1018.8 0.0000 0.0000
08:52 8 5.5 84 156 0.8 1.4 1018.8 0.0000 0.0000
09:03 8.5 6 84 156 0.8 1.4 1018.9 0.0000 0.0000
09:13 9.1 6.5 84 156 0.8 1.4 1018.9 0.0000 0.0000
09:22 9.8 7.1 83 156 0.8 1.4 1018.9 0.0000 0.0000
09:33 10.7 7.8 82 156 0.8 1.4 1018.9 0.0000 0.0000
09:43 11.8 8.5 80 156 0.8 1.4 1018.9 0.0000 0.0000
09:53 13.3 9.2 76 156 0.8 1.4 1018.9 0.0000 0.0000
10:03 14.4 9.4 72 156 0.8 1.4 1018.9 0.0000 0.0000
10:14 15.8 10.3 70 156 0.8 1.4 1018.9 0.0000 0.0000
10:23 17.1 11.2 68 156 0.8 1.4 1018.9 0.0000 0.0000
10:33 18.4 11 62 156 0.8 1.4 1019 0.0000 0.0000
10:43 19.2 10.5 57 156 0.8 1.4 1019 0.0000 0.0000
11:19 21.4 11.1 52 156 0.8 1.4 1019.1 0.0000 0.0000
11:29 21.9 10.7 49 156 0.8 1.4 1019.1 0.0000 0.0000
11:39 22.4 10.9 48 156 0.8 1.4 1019.1 0.0000 0.0000
11:49 22.9 11 47 156 0.8 1.4 1019 0.0000 0.0000
12:00 22.5 10.6 47 156 0.8 1.4 1019 0.0000 0.0000
12:10 22.4 11.2 49 156 0.8 1.4 1018.9 0.0000 0.0000
12:19 21.8 10.6 49 156 0.8 1.4 1018.9 0.0000 0.0000
12:29 21.6 10.7 50 156 0.8 1.4 1018.8 0.0000 0.0000
12:40 21.9 11 50 156 0.8 1.4 1018.7 0.0000 0.0000
12:50 22.6 11.4 49 156 0.8 1.4 1018.6 0.0000 0.0000
13:10 23.3 11.4 47 156 0.8 1.4 1018.2 0.0000 0.0000
13:20 24 11.3 45 156 0.8 1.4 1018.2 0.0000 0.0000
13:35 24 11.3 45 156 0.8 1.4 1018 0.0000 0.0000
13:45 24.3 11.6 45 156 0.8 1.4 1017.8 0.0000 0.0000
13:56 24.5 11.8 45 156 0.8 1.4 1017.8 0.0000 0.0000
14:15 24.7 11.6 44 156 0.8 1.4 1017.7 0.0000 0.0000
14:26 24.5 11.8 45 156 0.8 1.4 1017.6 0.0000 0.0000
14:36 24.7 12 45 156 0.8 1.4 1017.6 0.0000 0.0000
14:51 24.5 11.5 44 156 0.8 1.4 1017.6 0.0000 0.0000
15:01 24.8 11.7 44 156 0.8 1.4 1017.6 0.0000 0.0000
15:11 24.1 11.1 44 156 0.8 1.4 1017.6 0.0000 0.0000
15:21 24.1 11.4 45 156 0.8 1.4 1017.6 0.0000 0.0000
15:31 23.9 11.3 45 156 0.8 1.4 1017.5 0.0000 0.0000
15:42 23.7 11.1 45 156 0.8 1.4 1017.4 0.0000 0.0000
15:52 24 11.3 45 156 0.8 1.4 1017.3 0.0000 0.0000
16:01 24.3 11.6 45 156 0.8 1.4 1017.2 0.0000 0.0000
16:12 24.2 11.5 45 156 0.8 1.4 1017.2 0.0000 0.0000
16:22 24.1 11.1 44 156 0.8 1.4 1017.2 0.0000 0.0000
16:37 23.8 11.2 45 156 0.8 1.4 1017.2 0.0000 0.0000
16:47 23.7 11.1 45 156 0.8 1.4 1017.2 0.0000 0.0000
16:57 23.1 10.5 45 156 0.8 1.4 1017.2 0.0000 0.0000
17:07 21.8 10 47 156 0.8 1.4 1017.3 0.0000 0.0000
17:17 20.5 9.7 50 156 0.8 1.4 1017.3 0.0000 0.0000
17:28 19.4 9.3 52 156 0.8 1.4 1017.2 0.0000 0.0000
17:38 18.8 9.3 54 156 0.8 1.4 1017 0.0000 0.0000
17:48 18.1 8.7 54 156 0.8 1.4 1017 0.0000 0.0000
17:58 17.3 8.4 56 156 0.8 1.4 1017 0.0000 0.0000
18:08 16.6 8.3 58 156 0.8 1.4 1017.2 0.0000 0.0000
18:18 15.9 7.9 59 156 0.8 1.4 1017.2 0.0000 0.0000
18:28 15.2 7.7 61 156 0.8 1.4 1017.3 0.0000 0.0000
18:43 14.3 7.6 64 156 0.8 1.4 1017.4 0.0000 0.0000
18:53 13.7 7.2 65 156 0.8 1.4 1017.5 0.0000 0.0000
19:03 13.2 7.2 67 156 0.8 1.4 1017.6 0.0000 0.0000
19:14 12.9 7.1 68 156 0.8 1.4 1017.7 0.0000 0.0000
19:24 12.9 7.4 69 156 0.8 1.4 1017.7 0.0000 0.0000
19:34 12.8 7.5 70 156 0.8 1.4 1017.8 0.0000 0.0000
19:44 12.6 7.5 71 156 0.8 1.4 1017.8 0.0000 0.0000
20:04 12.6 7.7 72 156 0.8 1.4 1017.9 0.0000 0.0000
20:14 12.6 7.7 72 156 0.8 1.4 1017.8 0.0000 0.0000
20:25 12.3 7.4 72 156 0.8 1.4 1017.9 0.0000 0.0000
20:44 11.9 7.4 74 156 0.8 1.4 1017.9 0.0000 0.0000
21:05 11.5 7.4 76 156 0.8 1.4 1018 0.0000 0.0000
21:15 11.4 7.5 77 156 0.8 1.4 1018.1 0.0000 0.0000
21:25 11.4 7.7 78 156 0.8 1.4 1018.2 0.0000 0.0000
21:35 11.4 7.7 78 156 0.8 1.4 1018.2 0.0000 0.0000
21:45 11.4 7.7 78 156 0.8 1.4 1018.2 0.0000 0.0000
21:55 11.4 7.9 79 156 0.8 1.4 1018.2 0.0000 0.0000
22:05 11.4 7.9 79 156 0.8 1.4 1018.2 0.0000 0.0000
22:46 10.7 7.6 81 156 0.8 1.4 1018.5 0.0000 0.0000
22:56 10.5 7.4 81 156 0.8 1.4 1018.6 0.0000 0.0000
23:06 10.3 7.2 81 156 0.8 1.4 1018.5 0.0000 0.0000
23:15 10.3 7.4 82 156 0.8 1.4 1018.6 0.0000 0.0000
23:26 10.3 7.4 82 156 0.8 1.4 1018.5 0.0000 0.0000
23:36 10.4 7.6 83 156 0.8 1.4 1018.6 0.0000 0.0000
23:46 10.4 7.6 83 156 0.8 1.4 1018.3 0.0000 0.0000

DAY STATISTIC

2018-10-17
TEMPERATURE
AVERAGE
13.9
HIGH
24.8
15:01
LOW
6.4
07:57
PRESSURE
AVERAGE
1018.5
HIGH
1019.9
00:03
LOW
1017.0
17:38
DEWPOINT
AVERAGE
7.8
HIGH
12.0
14:36
LOW
4.1
07:36
HUMIDITY
AVERAGE
69
HIGH
86
08:17
LOW
44
14:15
WIND SPEED
AVERAGE
0.8
HIGH
0.8
00:03
WIND GUST
AVERAGE
1.4
HIGH
1.4
00:03
WIND DIRECTION
PREVAILING
SE
100%
N
0.0
NE
0.0
E
0.0
SE
100.0
S
0.0
SW
0.0
W
0.0
NW
0.0
PRECIPITATION
RAIN HOUR
0.0
RAIN DAY
0.0
TEMPERATURE (°C)
LOW
6.4
HIGH
24.8
AVERAGE
13.9
PRESSURE (hpa)
LOW
1017.0
HIGH
1019.9
AVERAGE
1018.5
DEVICE